Time;durP1;ratioP1;P1;durP2;ratioP2;P2;SDS_P1;SDS_P2;PMS_P1;PMS_P2;Temp;Humidity;BMP_temperature;BMP_pressure;BME280_temperature;BME280_humidity;BME280_pressure;Samples;Min_cycle;Max_cycle;Signal;HPM_P1;HPM_P2
2022/08/18 00:02:27;;;;;;;20.83;18.63;;;;;;;;;;5061749;28;20224;-70
2022/08/18 00:04:56;;;;;;;20.57;18.33;;;;;;;;;;5049093;28;20650;-70
2022/08/18 00:07:27;;;;;;;20.57;18.37;;;;;;;;;;5069389;28;20715;-70
2022/08/18 00:09:54;;;;;;;19.00;17.00;;;;;;;;;;5069525;28;20194;-70
2022/08/18 00:12:29;;;;;;;17.43;15.60;;;;;;;;;;5070702;28;20196;-70
2022/08/18 00:14:56;;;;;;;23.93;20.30;;;;;;;;;;5070380;28;20704;-70
2022/08/18 00:17:22;;;;;;;18.43;16.50;;;;;;;;;;5061156;28;20187;-69
2022/08/18 00:19:49;;;;;;;24.37;20.60;;;;;;;;;;5070557;28;20218;-70
2022/08/18 00:22:17;;;;;;;17.27;15.47;;;;;;;;;;5070383;28;20675;-70
2022/08/18 00:24:45;;;;;;;19.67;15.37;;;;;;;;;;5070653;28;20190;-70
2022/08/18 00:27:18;;;;;;;18.47;16.47;;;;;;;;;;5067943;28;20244;-70
2022/08/18 00:29:47;;;;;;;19.73;17.73;;;;;;;;;;5070469;28;20202;-70
2022/08/18 00:32:19;;;;;;;23.43;21.07;;;;;;;;;;5070202;28;20961;-70
2022/08/18 00:34:46;;;;;;;19.77;17.77;;;;;;;;;;5063958;28;20198;-70
2022/08/18 00:37:12;;;;;;;19.03;16.57;;;;;;;;;;5070263;28;20265;-70
2022/08/18 00:39:39;;;;;;;20.90;18.70;;;;;;;;;;5070249;28;20225;-70
2022/08/18 00:42:17;;;;;;;24.57;21.87;;;;;;;;;;5067466;28;20237;-70
2022/08/18 00:44:57;;;;;;;24.03;19.60;;;;;;;;;;5053837;28;20251;-70
2022/08/18 00:47:27;;;;;;;25.07;20.30;;;;;;;;;;5060629;28;20736;-69
2022/08/18 00:50:10;;;;;;;28.93;21.37;;;;;;;;;;5069687;28;20657;-69
2022/08/18 00:52:42;;;;;;;36.73;22.80;;;;;;;;;;5069672;28;20190;-70
2022/08/18 00:55:09;;;;;;;30.97;24.13;;;;;;;;;;5067221;28;20190;-70
2022/08/18 00:57:36;;;;;;;31.57;25.03;;;;;;;;;;5069359;28;20220;-70
2022/08/18 01:00:10;;;;;;;33.17;26.10;;;;;;;;;;5069577;28;20294;-70
2022/08/18 01:02:39;;;;;;;29.10;22.77;;;;;;;;;;5069217;28;20190;-70
2022/08/18 01:05:29;;;;;;;37.13;23.97;;;;;;;;;;5060551;28;20517;-70
2022/08/18 01:07:56;;;;;;;35.63;24.73;;;;;;;;;;5069242;28;20222;-69
2022/08/18 01:10:22;;;;;;;34.07;24.97;;;;;;;;;;5069639;28;20196;-70
2022/08/18 01:12:52;;;;;;;39.30;27.50;;;;;;;;;;5069486;28;20653;-70
2022/08/18 01:15:19;;;;;;;39.27;26.70;;;;;;;;;;5069389;28;20186;-70
2022/08/18 01:24:12;;;;;;;30.17;20.53;;;;;;;;;;5057995;28;20181;-70
2022/08/18 01:26:39;;;;;;;28.60;22.87;;;;;;;;;;5061841;28;20194;-70
2022/08/18 01:29:23;;;;;;;29.47;22.10;;;;;;;;;;5061345;28;20174;-70
2022/08/18 01:31:53;;;;;;;28.97;21.27;;;;;;;;;;5069273;28;20247;-70
2022/08/18 01:34:38;;;;;;;24.07;19.87;;;;;;;;;;5060989;28;20251;-70
2022/08/18 01:37:05;;;;;;;20.73;18.03;;;;;;;;;;5069433;28;20190;-70
2022/08/18 01:39:49;;;;;;;77.27;19.03;;;;;;;;;;5063948;28;20296;-70
2022/08/18 01:42:36;;;;;;;20.90;16.27;;;;;;;;;;5062624;28;20189;-70
2022/08/18 01:45:05;;;;;;;56.83;19.00;;;;;;;;;;5069070;28;20221;-69
2022/08/18 01:47:31;;;;;;;32.03;22.70;;;;;;;;;;5044580;28;20190;-70
2022/08/18 01:50:14;;;;;;;30.10;23.47;;;;;;;;;;5036766;28;20216;-70
2022/08/18 01:52:58;;;;;;;30.70;21.63;;;;;;;;;;5064396;28;20178;-70
2022/08/18 01:55:27;;;;;;;34.37;22.43;;;;;;;;;;5060175;28;20201;-70
2022/08/18 01:58:11;;;;;;;34.77;21.43;;;;;;;;;;5068965;28;20170;-70
2022/08/18 02:00:39;;;;;;;32.07;20.97;;;;;;;;;;5061438;28;20734;-70
2022/08/18 02:03:25;;;;;;;39.90;20.30;;;;;;;;;;5047684;28;20210;-70
2022/08/18 02:05:58;;;;;;;30.83;20.80;;;;;;;;;;5063547;28;20224;-70
2022/08/18 02:08:26;;;;;;;27.23;20.80;;;;;;;;;;5040120;28;20195;-70
2022/08/18 02:10:57;;;;;;;26.67;19.37;;;;;;;;;;5063739;28;20216;-70
2022/08/18 02:13:26;;;;;;;26.93;20.40;;;;;;;;;;5055298;28;20251;-70
2022/08/18 02:15:53;;;;;;;26.10;19.90;;;;;;;;;;5071985;28;20194;-69
2022/08/18 02:18:21;;;;;;;21.30;17.20;;;;;;;;;;5072403;28;20186;-69
2022/08/18 02:21:09;;;;;;;20.83;17.70;;;;;;;;;;5070157;28;20280;-70
2022/08/18 02:23:53;;;;;;;20.97;16.77;;;;;;;;;;5055167;28;20219;-70
2022/08/18 02:26:20;;;;;;;19.47;17.23;;;;;;;;;;5072826;28;20178;-70
2022/08/18 02:28:47;;;;;;;22.90;16.47;;;;;;;;;;5072499;28;20553;-69
2022/08/18 02:31:18;;;;;;;34.07;19.20;;;;;;;;;;5071477;28;20186;-69
2022/08/18 02:33:45;;;;;;;28.47;19.37;;;;;;;;;;5072797;28;20201;-69
2022/08/18 02:36:29;;;;;;;28.93;19.70;;;;;;;;;;5051227;28;20625;-69
2022/08/18 02:38:56;;;;;;;25.47;19.40;;;;;;;;;;5071878;28;20192;-70
2022/08/18 02:41:27;;;;;;;22.50;19.30;;;;;;;;;;5072496;28;20198;-69
2022/08/18 02:43:56;;;;;;;22.87;19.17;;;;;;;;;;5053899;28;20225;-69
2022/08/18 02:46:22;;;;;;;25.77;20.10;;;;;;;;;;5054929;28;20182;-70
2022/08/18 02:48:56;;;;;;;28.83;21.03;;;;;;;;;;5071712;28;20194;-70
2022/08/18 02:51:22;;;;;;;32.30;21.83;;;;;;;;;;5054585;28;20186;-69
2022/08/18 02:53:51;;;;;;;32.27;20.73;;;;;;;;;;5071991;28;20197;-70
2022/08/18 02:56:22;;;;;;;26.20;20.20;;;;;;;;;;5072112;28;20197;-69
2022/08/18 02:59:11;;;;;;;31.33;19.70;;;;;;;;;;5057040;28;20220;-69
2022/08/18 03:01:39;;;;;;;24.03;19.30;;;;;;;;;;5071667;28;20193;-70
2022/08/18 03:04:06;;;;;;;28.33;19.73;;;;;;;;;;5071733;28;20268;-70
2022/08/18 03:06:34;;;;;;;33.43;19.77;;;;;;;;;;5071858;28;20229;-70
2022/08/18 03:09:01;;;;;;;25.07;20.33;;;;;;;;;;5054069;28;20281;-71
2022/08/18 03:11:45;;;;;;;54.57;19.97;;;;;;;;;;5056611;28;20182;-70
2022/08/18 03:14:12;;;;;;;24.40;18.67;;;;;;;;;;5053869;28;20218;-70
2022/08/18 03:16:57;;;;;;;24.43;18.80;;;;;;;;;;5071425;28;20190;-70
2022/08/18 03:19:24;;;;;;;24.87;19.50;;;;;;;;;;5053765;28;20208;-70
2022/08/18 03:21:51;;;;;;;22.13;17.50;;;;;;;;;;5072077;28;20541;-70
2022/08/18 03:24:18;;;;;;;24.13;19.00;;;;;;;;;;5052025;28;20198;-71
2022/08/18 03:26:49;;;;;;;21.63;18.30;;;;;;;;;;5071088;28;20206;-70
2022/08/18 03:29:34;;;;;;;23.33;17.07;;;;;;;;;;5071231;28;20182;-69
2022/08/18 03:32:01;;;;;;;19.83;17.20;;;;;;;;;;5046205;28;20297;-69
2022/08/18 03:34:46;;;;;;;21.83;16.40;;;;;;;;;;5065278;28;20178;-69
2022/08/18 03:37:15;;;;;;;23.50;16.13;;;;;;;;;;5054215;28;20267;-70
2022/08/18 03:39:42;;;;;;;20.80;17.80;;;;;;;;;;5065975;28;20202;-70
2022/08/18 03:42:08;;;;;;;23.77;18.17;;;;;;;;;;5065356;28;20798;-71
2022/08/18 03:44:36;;;;;;;21.97;17.47;;;;;;;;;;5062884;28;20194;-70
2022/08/18 03:47:03;;;;;;;19.90;17.73;;;;;;;;;;5053264;28;20189;-68
2022/08/18 03:49:30;;;;;;;19.73;17.63;;;;;;;;;;5070755;28;20197;-70
2022/08/18 03:51:59;;;;;;;19.57;14.87;;;;;;;;;;5039251;28;20194;-73
2022/08/18 03:54:27;;;;;;;17.17;14.40;;;;;;;;;;5054972;28;20222;-67
2022/08/18 03:56:54;;;;;;;20.77;16.63;;;;;;;;;;5056346;28;20190;-74
2022/08/18 03:59:22;;;;;;;17.63;15.50;;;;;;;;;;5040354;28;20246;-74
2022/08/18 04:01:50;;;;;;;18.13;16.13;;;;;;;;;;5038156;28;20597;-74
2022/08/18 04:04:19;;;;;;;16.37;14.67;;;;;;;;;;5056798;28;20197;-72
2022/08/18 04:06:50;;;;;;;31.63;18.67;;;;;;;;;;5055378;28;20239;-73
2022/08/18 04:09:17;;;;;;;24.57;19.47;;;;;;;;;;5041064;28;20213;-74
2022/08/18 04:11:44;;;;;;;23.40;18.80;;;;;;;;;;5061000;28;20210;-73
2022/08/18 04:14:12;;;;;;;26.47;19.47;;;;;;;;;;5040638;28;20296;-69
2022/08/18 04:16:39;;;;;;;26.90;18.23;;;;;;;;;;5055332;28;20210;-67
2022/08/18 04:19:07;;;;;;;21.23;17.00;;;;;;;;;;5043445;28;20271;-69
2022/08/18 04:21:35;;;;;;;24.73;16.77;;;;;;;;;;5055449;28;20248;-69
2022/08/18 04:24:03;;;;;;;22.93;16.23;;;;;;;;;;5060819;28;20190;-72
2022/08/18 04:26:31;;;;;;;20.47;15.43;;;;;;;;;;5059177;28;20203;-73
2022/08/18 04:29:01;;;;;;;23.33;15.90;;;;;;;;;;5037870;28;20198;-70
2022/08/18 04:31:45;;;;;;;21.87;16.37;;;;;;;;;;5053283;28;20205;-69
2022/08/18 04:34:13;;;;;;;18.23;15.33;;;;;;;;;;5056668;28;20248;-72
2022/08/18 04:36:40;;;;;;;18.90;16.33;;;;;;;;;;5039698;28;20207;-70
2022/08/18 04:39:10;;;;;;;20.67;15.70;;;;;;;;;;5041582;28;20317;-72
2022/08/18 04:41:38;;;;;;;23.40;16.07;;;;;;;;;;5047008;28;20205;-71
2022/08/18 04:44:07;;;;;;;27.83;15.43;;;;;;;;;;5063030;28;20202;-74
2022/08/18 04:46:35;;;;;;;18.77;15.50;;;;;;;;;;5061671;28;20206;-73
2022/08/18 04:49:02;;;;;;;22.03;15.67;;;;;;;;;;5033950;28;20202;-73
2022/08/18 04:51:29;;;;;;;20.53;15.00;;;;;;;;;;5055208;28;20205;-73
2022/08/18 04:54:16;;;;;;;19.60;14.63;;;;;;;;;;5065121;28;20691;-69
2022/08/18 04:56:43;;;;;;;21.23;16.27;;;;;;;;;;5069713;28;20277;-69
2022/08/18 04:59:10;;;;;;;20.30;15.27;;;;;;;;;;5069886;28;20192;-69
2022/08/18 05:01:41;;;;;;;23.30;15.67;;;;;;;;;;5051824;28;20210;-69
2022/08/18 05:04:09;;;;;;;20.13;14.53;;;;;;;;;;5035811;28;20202;-68
2022/08/18 05:06:36;;;;;;;22.77;15.03;;;;;;;;;;5069038;28;20228;-69
2022/08/18 05:09:03;;;;;;;19.53;14.20;;;;;;;;;;5052256;28;20194;-69
2022/08/18 05:11:33;;;;;;;31.77;16.97;;;;;;;;;;5069372;28;20186;-69
2022/08/18 05:14:01;;;;;;;30.83;16.63;;;;;;;;;;5035710;28;20196;-69
2022/08/18 05:16:28;;;;;;;33.83;17.97;;;;;;;;;;5069505;28;20196;-69
2022/08/18 05:18:55;;;;;;;41.90;20.53;;;;;;;;;;5035683;28;20266;-68
2022/08/18 05:21:24;;;;;;;35.90;19.63;;;;;;;;;;5037023;28;20225;-68
2022/08/18 05:23:51;;;;;;;31.30;17.30;;;;;;;;;;5060767;28;20283;-66
2022/08/18 05:26:18;;;;;;;34.27;18.47;;;;;;;;;;5057511;28;20651;-68
2022/08/18 05:28:45;;;;;;;37.90;18.40;;;;;;;;;;5054518;28;20860;-68
2022/08/18 05:31:14;;;;;;;43.17;20.33;;;;;;;;;;5050850;28;20218;-67
2022/08/18 05:33:41;;;;;;;37.53;19.60;;;;;;;;;;5046466;28;20190;-67
2022/08/18 05:36:18;;;;;;;42.63;20.07;;;;;;;;;;5057718;28;20385;-71
2022/08/18 05:39:12;;;;;;;47.40;23.80;;;;;;;;;;5044049;28;20170;-68
2022/08/18 05:41:40;;;;;;;52.77;24.93;;;;;;;;;;5053236;28;20226;-69
2022/08/18 05:44:08;;;;;;;54.33;23.47;;;;;;;;;;5039642;28;20183;-69
2022/08/18 05:46:48;;;;;;;51.20;25.23;;;;;;;;;;5036366;28;20732;-72
2022/08/18 05:49:16;;;;;;;65.47;26.23;;;;;;;;;;5024533;28;20190;-70
2022/08/18 05:52:09;;;;;;;58.87;26.20;;;;;;;;;;5059259;28;20208;-72
2022/08/18 05:57:26;;;;;;;58.53;27.40;;;;;;;;;;5035430;28;20244;-71
2022/08/18 05:59:53;;;;;;;55.60;27.17;;;;;;;;;;5040685;28;20722;-67
2022/08/18 06:02:20;;;;;;;51.73;27.77;;;;;;;;;;5058160;28;20281;-66
2022/08/18 06:04:54;;;;;;;61.73;29.90;;;;;;;;;;5057462;28;20818;-67
2022/08/18 06:07:26;;;;;;;49.57;28.97;;;;;;;;;;5036637;28;20231;-66
2022/08/18 06:09:59;;;;;;;59.53;30.10;;;;;;;;;;5054985;28;20243;-66
2022/08/18 06:12:27;;;;;;;59.80;30.50;;;;;;;;;;5053641;28;20200;-70
2022/08/18 06:14:58;;;;;;;55.60;31.60;;;;;;;;;;5034452;28;20205;-74
2022/08/18 06:17:50;;;;;;;58.53;30.73;;;;;;;;;;5046409;28;20195;-75
2022/08/18 06:20:29;;;;;;;62.47;31.93;;;;;;;;;;5065777;28;20274;-69
2022/08/18 06:23:02;;;;;;;62.70;30.90;;;;;;;;;;5041189;28;20291;-72
2022/08/18 06:25:54;;;;;;;69.83;32.27;;;;;;;;;;5046844;28;20570;-70
2022/08/18 06:28:20;;;;;;;61.53;31.17;;;;;;;;;;5061948;28;20259;-70
2022/08/18 06:30:58;;;;;;;63.53;33.47;;;;;;;;;;5045925;28;20234;-70
2022/08/18 06:33:28;;;;;;;61.57;33.40;;;;;;;;;;5044050;28;20186;-70
2022/08/18 06:36:01;;;;;;;66.27;33.07;;;;;;;;;;5057345;28;20272;-70
2022/08/18 06:38:40;;;;;;;64.00;33.20;;;;;;;;;;5038761;28;20213;-70
2022/08/18 06:41:44;;;;;;;67.30;35.53;;;;;;;;;;5063386;28;20321;-70
2022/08/18 06:44:12;;;;;;;66.07;35.40;;;;;;;;;;5054368;28;20224;-69
2022/08/18 06:46:52;;;;;;;58.10;34.87;;;;;;;;;;5044734;28;20285;-70
2022/08/18 06:49:27;;;;;;;61.97;36.07;;;;;;;;;;5055049;28;20665;-70
2022/08/18 06:51:54;;;;;;;65.97;36.53;;;;;;;;;;5042725;28;21064;-70
2022/08/18 06:54:21;;;;;;;65.57;38.03;;;;;;;;;;5048399;28;20248;-70
2022/08/18 06:56:49;;;;;;;60.10;37.07;;;;;;;;;;5061078;28;20186;-71
2022/08/18 06:59:35;;;;;;;60.80;36.43;;;;;;;;;;5054477;28;20182;-70
2022/08/18 07:02:13;;;;;;;55.93;35.07;;;;;;;;;;5066727;28;20644;-71
2022/08/18 07:04:41;;;;;;;53.07;34.87;;;;;;;;;;5068805;28;20624;-70
2022/08/18 07:07:15;;;;;;;50.77;32.57;;;;;;;;;;5052210;28;20906;-71
2022/08/18 07:10:00;;;;;;;53.27;34.43;;;;;;;;;;5054293;28;20219;-70
2022/08/18 07:12:29;;;;;;;50.17;33.73;;;;;;;;;;5068842;28;20240;-70
2022/08/18 07:15:00;;;;;;;53.63;35.60;;;;;;;;;;5019018;28;20186;-70
2022/08/18 07:17:27;;;;;;;50.50;31.47;;;;;;;;;;5050972;28;20284;-70
2022/08/18 07:20:23;;;;;;;44.90;31.27;;;;;;;;;;5053279;28;20209;-70
2022/08/18 07:22:51;;;;;;;44.27;32.10;;;;;;;;;;5068740;28;20197;-71
2022/08/18 07:25:19;;;;;;;40.13;28.27;;;;;;;;;;5038346;28;20229;-72
2022/08/18 07:27:47;;;;;;;37.77;28.00;;;;;;;;;;5062312;28;20194;-70
2022/08/18 07:30:35;;;;;;;34.30;26.87;;;;;;;;;;5071571;28;20185;-71
2022/08/18 07:33:05;;;;;;;34.77;26.33;;;;;;;;;;5053411;28;20284;-72
2022/08/18 07:35:55;;;;;;;37.50;27.67;;;;;;;;;;5071537;28;20185;-71
2022/08/18 07:38:29;;;;;;;28.60;21.27;;;;;;;;;;5038776;28;20194;-69
2022/08/18 07:41:15;;;;;;;17.23;14.10;;;;;;;;;;5056112;28;20613;-71
2022/08/18 07:43:45;;;;;;;29.13;15.33;;;;;;;;;;5053197;28;20189;-72
2022/08/18 07:46:12;;;;;;;15.67;12.27;;;;;;;;;;5056535;28;20584;-69
2022/08/18 07:48:39;;;;;;;41.23;18.70;;;;;;;;;;5064214;28;20598;-69
2022/08/18 07:51:18;;;;;;;24.57;14.03;;;;;;;;;;5064431;28;20213;-68
2022/08/18 07:53:58;;;;;;;17.97;12.23;;;;;;;;;;5063548;28;20198;-68
2022/08/18 07:56:31;;;;;;;14.87;12.07;;;;;;;;;;5043613;28;20201;-70
2022/08/18 07:59:01;;;;;;;15.97;11.40;;;;;;;;;;5042976;28;20734;-69
2022/08/18 08:01:31;;;;;;;14.50;11.57;;;;;;;;;;5064800;28;20569;-69
2022/08/18 08:04:22;;;;;;;14.20;12.77;;;;;;;;;;5066941;28;20280;-68
2022/08/18 08:07:03;;;;;;;19.00;12.43;;;;;;;;;;5068454;28;20241;-67
2022/08/18 08:09:50;;;;;;;14.97;11.67;;;;;;;;;;5055455;28;20193;-67
2022/08/18 08:12:29;;;;;;;13.77;11.63;;;;;;;;;;5070383;28;20186;-71
2022/08/18 08:15:24;;;;;;;17.30;13.20;;;;;;;;;;5044316;28;20174;-69
2022/08/18 08:18:04;;;;;;;16.53;10.57;;;;;;;;;;5041945;28;20233;-70
2022/08/18 08:20:49;;;;;;;14.73;10.53;;;;;;;;;;5045070;28;20213;-69
2022/08/18 08:23:41;;;;;;;15.83;10.90;;;;;;;;;;5059266;28;20220;-69
2022/08/18 08:26:34;;;;;;;15.00;11.33;;;;;;;;;;5059776;28;20277;-68
2022/08/18 08:29:01;;;;;;;14.03;10.47;;;;;;;;;;5060108;28;20206;-65
2022/08/18 08:31:37;;;;;;;15.50;11.20;;;;;;;;;;5059806;28;20206;-68
2022/08/18 08:34:21;;;;;;;12.93;10.70;;;;;;;;;;5041573;28;20193;-69
2022/08/18 08:36:48;;;;;;;14.70;11.00;;;;;;;;;;5059601;28;20292;-68
2022/08/18 08:39:18;;;;;;;16.20;11.13;;;;;;;;;;5059945;28;20202;-68
2022/08/18 08:41:49;;;;;;;15.00;11.20;;;;;;;;;;5059566;28;20290;-67
2022/08/18 08:44:20;;;;;;;13.07;10.57;;;;;;;;;;5058837;28;20197;-67
2022/08/18 08:46:50;;;;;;;16.73;11.60;;;;;;;;;;5061519;28;20194;-67
2022/08/18 08:49:52;;;;;;;19.23;11.87;;;;;;;;;;5061015;28;20185;-63
2022/08/18 08:52:27;;;;;;;13.20;11.80;;;;;;;;;;5058874;28;20194;-64
2022/08/18 08:54:54;;;;;;;15.80;11.87;;;;;;;;;;5062020;28;20182;-63
2022/08/18 08:57:31;;;;;;;14.37;11.33;;;;;;;;;;5060784;28;20194;-65
2022/08/18 09:00:15;;;;;;;11.77;10.67;;;;;;;;;;5060626;28;20515;-64
2022/08/18 09:02:46;;;;;;;14.60;10.03;;;;;;;;;;5059062;28;20202;-65
2022/08/18 09:05:19;;;;;;;12.50;11.17;;;;;;;;;;5036392;28;20247;-67
2022/08/18 09:08:06;;;;;;;14.23;10.67;;;;;;;;;;5039825;28;20239;-66
2022/08/18 09:10:43;;;;;;;13.40;11.47;;;;;;;;;;5069238;28;20186;-66
2022/08/18 09:13:29;;;;;;;14.57;11.60;;;;;;;;;;5051762;28;20589;-66
2022/08/18 09:16:04;;;;;;;12.47;10.00;;;;;;;;;;5069496;28;20221;-66
2022/08/18 09:18:45;;;;;;;11.50;10.33;;;;;;;;;;5061597;28;20192;-65
2022/08/18 09:21:21;;;;;;;14.37;9.93;;;;;;;;;;5069264;28;20214;-64
2022/08/18 09:23:49;;;;;;;11.10;9.93;;;;;;;;;;5062461;28;20219;-65
2022/08/18 09:26:22;;;;;;;15.93;10.40;;;;;;;;;;5051579;28;20634;-64
2022/08/18 09:28:57;;;;;;;22.20;13.90;;;;;;;;;;5061538;28;20198;-61
2022/08/18 09:31:24;;;;;;;12.67;10.20;;;;;;;;;;5012876;28;20208;-65
2022/08/18 09:34:01;;;;;;;11.67;10.47;;;;;;;;;;5041212;28;20220;-64
2022/08/18 09:37:03;;;;;;;13.63;9.80;;;;;;;;;;5057310;28;20992;-64
2022/08/18 09:42:36;;;;;;;13.57;10.03;;;;;;;;;;5041433;28;20232;-64
2022/08/18 09:45:31;;;;;;;15.93;10.13;;;;;;;;;;5040404;28;20200;-65
2022/08/18 09:48:12;;;;;;;11.53;10.03;;;;;;;;;;5056010;28;20300;-65
2022/08/18 09:50:51;;;;;;;15.53;10.83;;;;;;;;;;5056087;28;20665;-65
2022/08/18 09:53:36;;;;;;;12.17;10.23;;;;;;;;;;5052165;28;20281;-66
2022/08/18 09:56:05;;;;;;;11.70;10.50;;;;;;;;;;5060736;28;20193;-65
2022/08/18 09:58:47;;;;;;;13.23;9.90;;;;;;;;;;5058909;28;20190;-66
2022/08/18 10:01:29;;;;;;;10.63;9.57;;;;;;;;;;5060613;28;20213;-64
2022/08/18 10:04:14;;;;;;;13.10;9.93;;;;;;;;;;5066745;28;20185;-66
2022/08/18 10:06:47;;;;;;;12.40;9.90;;;;;;;;;;5068805;28;20221;-65
2022/08/18 10:09:32;;;;;;;11.40;9.30;;;;;;;;;;5051781;28;20271;-63
2022/08/18 10:12:31;;;;;;;11.30;10.07;;;;;;;;;;5068483;28;20189;-66
2022/08/18 10:15:34;;;;;;;13.07;10.70;;;;;;;;;;5053269;28;20174;-66
2022/08/18 10:18:24;;;;;;;13.57;10.63;;;;;;;;;;5058675;28;20277;-63
2022/08/18 10:20:57;;;;;;;10.60;9.50;;;;;;;;;;5051225;28;20202;-64
2022/08/18 10:23:44;;;;;;;11.63;10.37;;;;;;;;;;5066579;28;20206;-64
2022/08/18 10:26:29;;;;;;;12.20;10.73;;;;;;;;;;5064483;28;20207;-64
2022/08/18 10:28:58;;;;;;;11.67;10.07;;;;;;;;;;5065410;28;21017;-64
2022/08/18 10:31:28;;;;;;;13.63;10.40;;;;;;;;;;5066264;28;20590;-64
2022/08/18 10:33:57;;;;;;;12.57;10.50;;;;;;;;;;5071434;28;20194;-64
2022/08/18 10:36:51;;;;;;;11.27;10.07;;;;;;;;;;5039972;28;20183;-63
2022/08/18 10:39:20;;;;;;;12.60;9.90;;;;;;;;;;5068086;28;20233;-63
2022/08/18 10:41:49;;;;;;;11.40;10.30;;;;;;;;;;5072336;28;20226;-63
2022/08/18 10:44:21;;;;;;;11.30;10.10;;;;;;;;;;5055071;28;20190;-63
2022/08/18 10:46:55;;;;;;;11.93;10.73;;;;;;;;;;5071936;28;20197;-63
2022/08/18 10:49:24;;;;;;;11.33;9.93;;;;;;;;;;5054849;28;20188;-63
2022/08/18 10:52:01;;;;;;;13.20;10.23;;;;;;;;;;5054627;28;20228;-63
2022/08/18 10:54:32;;;;;;;12.10;10.00;;;;;;;;;;5068772;28;20189;-63
2022/08/18 10:57:19;;;;;;;13.33;10.03;;;;;;;;;;5056293;28;20201;-64
2022/08/18 10:59:49;;;;;;;12.33;10.23;;;;;;;;;;5072550;28;20197;-63
2022/08/18 11:02:20;;;;;;;11.27;10.10;;;;;;;;;;5054847;28;20249;-60
2022/08/18 11:04:51;;;;;;;11.57;10.33;;;;;;;;;;5071216;28;20244;-62
2022/08/18 11:07:37;;;;;;;14.73;10.93;;;;;;;;;;5071307;28;20224;-62
2022/08/18 11:10:22;;;;;;;13.23;11.30;;;;;;;;;;5067985;28;20194;-65
2022/08/18 11:13:16;;;;;;;12.43;9.17;;;;;;;;;;5070146;28;20174;-65
2022/08/18 11:16:01;;;;;;;12.17;10.90;;;;;;;;;;5065236;28;20190;-64
2022/08/18 11:18:33;;;;;;;12.80;9.90;;;;;;;;;;5065543;28;20665;-66
2022/08/18 11:21:23;;;;;;;17.30;10.70;;;;;;;;;;5056014;28;20212;-65
2022/08/18 11:24:09;;;;;;;13.73;10.23;;;;;;;;;;5051213;28;20224;-64
2022/08/18 11:26:40;;;;;;;10.67;8.53;;;;;;;;;;5067878;28;20745;-64
2022/08/18 11:29:31;;;;;;;11.90;9.30;;;;;;;;;;5071711;28;20202;-64
2022/08/18 11:32:01;;;;;;;10.63;9.17;;;;;;;;;;5071150;28;20222;-64
2022/08/18 11:34:31;;;;;;;12.03;8.77;;;;;;;;;;5064681;28;20198;-67
2022/08/18 11:36:58;;;;;;;13.50;9.37;;;;;;;;;;5054073;28;20194;-68
2022/08/18 11:39:25;;;;;;;12.23;8.60;;;;;;;;;;5068451;28;20557;-68
2022/08/18 11:42:04;;;;;;;16.40;10.17;;;;;;;;;;5059346;28;20228;-68
2022/08/18 11:44:31;;;;;;;14.53;11.83;;;;;;;;;;5050708;28;20186;-66
2022/08/18 11:47:27;;;;;;;13.10;11.53;;;;;;;;;;5053467;28;20327;-68
2022/08/18 11:50:06;;;;;;;16.53;11.30;;;;;;;;;;5049460;28;20206;-72
2022/08/18 11:52:45;;;;;;;13.20;11.80;;;;;;;;;;5041186;28;20198;-77
2022/08/18 11:55:19;;;;;;;15.57;11.83;;;;;;;;;;5044565;28;20574;-70
2022/08/18 11:57:53;;;;;;;13.57;12.17;;;;;;;;;;5038315;28;20202;-71
2022/08/18 12:00:34;;;;;;;13.97;12.50;;;;;;;;;;5035043;28;20232;-68
2022/08/18 12:03:27;;;;;;;16.43;12.87;;;;;;;;;;5071368;28;20217;-70
2022/08/18 12:05:56;;;;;;;24.17;13.30;;;;;;;;;;5069516;28;20297;-71
2022/08/18 12:08:52;;;;;;;19.17;12.40;;;;;;;;;;5054669;28;20257;-71
2022/08/18 12:11:51;;;;;;;16.90;12.27;;;;;;;;;;5046058;28;20636;-69
2022/08/18 12:14:22;;;;;;;15.00;11.80;;;;;;;;;;5058490;28;20214;-68
2022/08/18 12:17:09;;;;;;;14.17;12.43;;;;;;;;;;5042824;28;20178;-70
2022/08/18 12:19:36;;;;;;;16.57;12.63;;;;;;;;;;5070107;28;20185;-69
2022/08/18 12:22:12;;;;;;;18.87;12.97;;;;;;;;;;5070101;28;20324;-68
2022/08/18 12:24:39;;;;;;;15.33;12.73;;;;;;;;;;5051945;28;20189;-69
2022/08/18 12:27:07;;;;;;;13.90;12.50;;;;;;;;;;5071148;28;20272;-69
2022/08/18 12:29:55;;;;;;;14.33;12.40;;;;;;;;;;5069437;28;20215;-68
2022/08/18 12:32:42;;;;;;;17.37;12.70;;;;;;;;;;5055151;28;20202;-69
2022/08/18 12:35:28;;;;;;;14.90;12.87;;;;;;;;;;5066509;28;20188;-73
2022/08/18 12:37:56;;;;;;;15.53;12.20;;;;;;;;;;5064998;28;20283;-73
2022/08/18 12:40:29;;;;;;;14.43;11.57;;;;;;;;;;5055033;28;20193;-73
2022/08/18 12:42:56;;;;;;;13.07;11.50;;;;;;;;;;5052457;28;20308;-72
2022/08/18 12:45:24;;;;;;;13.03;11.63;;;;;;;;;;5050561;28;20197;-73
2022/08/18 12:47:53;;;;;;;16.73;14.07;;;;;;;;;;5070099;28;20202;-72
2022/08/18 12:50:20;;;;;;;14.27;11.53;;;;;;;;;;5052530;28;20218;-72
2022/08/18 12:52:59;;;;;;;12.60;11.40;;;;;;;;;;5044610;28;20244;-72
2022/08/18 12:55:26;;;;;;;15.77;14.03;;;;;;;;;;5050451;28;20203;-72
2022/08/18 12:57:53;;;;;;;13.83;11.60;;;;;;;;;;5052540;28;20192;-69
2022/08/18 13:00:20;;;;;;;14.23;12.80;;;;;;;;;;5068892;28;20213;-69
2022/08/18 13:02:55;;;;;;;13.90;12.27;;;;;;;;;;5068160;28;20266;-70
2022/08/18 13:05:23;;;;;;;15.57;13.97;;;;;;;;;;5022911;28;20252;-70
2022/08/18 13:07:56;;;;;;;14.60;12.97;;;;;;;;;;5035361;28;20229;-68
2022/08/18 13:10:41;;;;;;;13.93;11.17;;;;;;;;;;5054216;28;20185;-72
2022/08/18 13:13:16;;;;;;;11.77;10.60;;;;;;;;;;5035553;28;20672;-69
2022/08/18 13:15:44;;;;;;;12.00;10.70;;;;;;;;;;5067078;28;20193;-69
2022/08/18 13:18:24;;;;;;;11.97;10.33;;;;;;;;;;5066589;28;20675;-74
2022/08/18 13:20:57;;;;;;;13.27;10.83;;;;;;;;;;5068299;28;20262;-71
2022/08/18 13:23:26;;;;;;;15.00;11.93;;;;;;;;;;5065986;28;20228;-76
2022/08/18 13:25:54;;;;;;;12.73;11.43;;;;;;;;;;5060711;28;20213;-73
2022/08/18 13:28:28;;;;;;;13.97;12.47;;;;;;;;;;5051635;28;20208;-72
2022/08/18 13:31:20;;;;;;;12.90;10.07;;;;;;;;;;5067854;28;20189;-69
2022/08/18 13:33:49;;;;;;;12.00;10.17;;;;;;;;;;5065253;28;20197;-73
2022/08/18 13:36:24;;;;;;;12.43;9.30;;;;;;;;;;5035771;28;20192;-76
2022/08/18 13:38:54;;;;;;;15.07;10.40;;;;;;;;;;5032519;28;20597;-74
2022/08/18 13:41:40;;;;;;;13.07;10.47;;;;;;;;;;5057149;28;20221;-74
2022/08/18 13:44:12;;;;;;;14.23;10.33;;;;;;;;;;5050939;28;20189;-73
2022/08/18 13:46:45;;;;;;;12.97;11.67;;;;;;;;;;5069036;28;20200;-73
2022/08/18 13:49:12;;;;;;;13.80;10.70;;;;;;;;;;5068867;28;20576;-74
2022/08/18 13:51:45;;;;;;;14.67;10.07;;;;;;;;;;5050993;28;20240;-76
2022/08/18 13:54:22;;;;;;;10.87;9.70;;;;;;;;;;5048884;28;20372;-75
2022/08/18 13:57:01;;;;;;;11.43;9.60;;;;;;;;;;5067163;28;20199;-72
2022/08/18 13:59:31;;;;;;;11.53;9.50;;;;;;;;;;5034664;28;20186;-73
2022/08/18 14:02:01;;;;;;;12.37;9.43;;;;;;;;;;5051671;28;20210;-74
2022/08/18 14:04:28;;;;;;;10.20;9.20;;;;;;;;;;5050559;28;20176;-72
2022/08/18 14:06:55;;;;;;;10.10;8.80;;;;;;;;;;5067411;28;20237;-75
2022/08/18 14:09:26;;;;;;;11.27;9.00;;;;;;;;;;5051111;28;20195;-72
2022/08/18 14:12:04;;;;;;;11.53;9.20;;;;;;;;;;5050350;28;20302;-74
2022/08/18 14:14:32;;;;;;;12.10;9.20;;;;;;;;;;5049462;28;20186;-72
2022/08/18 14:17:01;;;;;;;10.43;8.83;;;;;;;;;;5066682;28;20968;-76
2022/08/18 14:26:50;;;;;;;12.30;9.23;;;;;;;;;;5051801;28;20206;-73
2022/08/18 14:29:41;;;;;;;11.30;8.83;;;;;;;;;;5055842;28;20214;-73
2022/08/18 14:32:47;;;;;;;9.83;8.53;;;;;;;;;;5049201;28;20207;-71
2022/08/18 14:36:25;;;;;;;9.30;8.37;;;;;;;;;;5052089;28;20207;-72
2022/08/18 14:39:59;;;;;;;10.20;7.97;;;;;;;;;;5050452;28;20291;-71
2022/08/18 14:42:51;;;;;;;10.47;8.40;;;;;;;;;;4976423;28;20232;-73
2022/08/18 14:45:23;;;;;;;14.93;9.10;;;;;;;;;;5017121;28;20722;-74
2022/08/18 14:48:08;;;;;;;10.93;8.07;;;;;;;;;;5003697;28;20194;-76
2022/08/18 14:50:37;;;;;;;9.40;7.97;;;;;;;;;;5009211;28;20714;-73
2022/08/18 14:53:27;;;;;;;11.37;8.13;;;;;;;;;;5014957;28;20196;-76
2022/08/18 14:56:01;;;;;;;11.87;8.20;;;;;;;;;;5012428;28;20211;-76
2022/08/18 14:58:29;;;;;;;10.87;8.20;;;;;;;;;;5018784;28;20255;-67
2022/08/18 15:00:57;;;;;;;11.53;8.83;;;;;;;;;;4994098;28;20205;-69
2022/08/18 15:03:25;;;;;;;11.27;8.13;;;;;;;;;;5006540;28;20249;-68
2022/08/18 15:06:09;;;;;;;8.50;7.70;;;;;;;;;;5017321;28;20219;-71
2022/08/18 15:08:50;;;;;;;10.47;8.17;;;;;;;;;;5010930;28;20278;-78
2022/08/18 15:11:17;;;;;;;8.83;7.90;;;;;;;;;;4992775;28;20212;-73
2022/08/18 15:13:50;;;;;;;10.67;8.63;;;;;;;;;;5016867;28;20216;-78
2022/08/18 15:16:22;;;;;;;9.43;8.43;;;;;;;;;;5037452;28;20291;-79
2022/08/18 15:19:06;;;;;;;10.83;8.20;;;;;;;;;;5035034;28;20175;-79
2022/08/18 15:27:31;;;;;;;14.40;7.87;;;;;;;;;;5040128;28;20218;-73
2022/08/18 15:43:18;;;;;;;10.40;9.10;;;;;;;;;;4945180;29;20288;-74